ケアンズ の空港の天気 - METARとTAF

ケアンズ国際空港 ( YBCS / CNS ) - オーストラリア クイーンズランド州ケアンズ
飛行場実況気象(Metar)
観測時間02/01 19:00 AEST (02/01 09:00 UTC)
風向・風速北北西 2m/s
視程10km以上
天気現象
なし
気温29℃
湿度79%
気圧1003hPa
METARYBCS 010900Z AUTO 33004KT 9999 // NCD 29/25 Q1003 RF00.0/000.2
過去の天気等 Google飛行場航空写真 Wunderground天気予報

過去48時間のMETAR

飛行場予報(TAF)
発表時間: 2/01 18:06 AEST (2/01 08:06 UTC)
予報対象時間: 1日19時 AEST ~ 2日16時 AEST
風向・風速不定 2m/s
視程10km以上
全天の4割程度の雲 雲底高度 610m
全天の4割程度の雲 雲底高度 1220m
2日11時 AEST から
風向・風速北北東 5m/s
視程10km以上
全天の4割程度の雲 雲底高度 1220m
2日14時 AEST ~ 2日16時 AEST に 確率 30% で一時的に
風向・風速不定 10m/s 瞬間風速 15m/s
視程1000m
天気現象雷雨
全天の8割程度の雲 雲底高度 300m
全天の4割程度の積乱雲 雲底高度 1220m
TAF YBCS 010806Z 0109/0206 VRB03KT 9999 SCT020 SCT040
FM020100 02009KT 9999 SCT040 INTER 0110/0122 9999 BKN015
PROB30 TEMPO 0204/0206 VRB20G30KT 1000 TSRA BKN010 SCT040CB